Current Weather

Swami Vivekananda

Swami Vivekananda, India (VERP)

Report from: Thursday, April 25, 2024 3:00 AM UTC
Current time: Thursday, April 25, 2024 3:33 AM UTC

Nearby weather – Weather history – Daily summaries
Weather forecast

Present weatherHaze
Temperature32.0°C (89.6°F)
Heat index34.2°C (93.5°F)
Dew point20.0°C (68.0°F)
Winds 5 kts (2.6 m/s, 5.8 mph) South (180°)
Visibility2.5 mi. (4 km)
Clouds Few clouds 10,000 ft. (3,048 m)
Altimeter29.80 in.Hg (1009 mB)
Relative humidity49 %
Density altitude2,400 ft. (731 m)
Flight conditions Instrument Meteorological Conditions
Raw dataVERP 250300Z 18005KT 4000 HZ FEW100 32/20 Q1009 BECMG 5000 HZ
An error has occurred. This application may no longer respond until reloaded. Reload 🗙